Weather at Ultralight Friuli Airfield

Public forecast

Using degrees Celsius for public forecast. Weather courtesy of forecast.io.

Closest aviation weather report (METAR) to Ultralight Friuli Airfield

Closest report is Trieste–Friuli Venezia Giulia Airport, 7.7 nm (14.3 km) SE.

2024/05/23 02:50 (retrieved 27 minutes ago)

LIPQ 230250Z AUTO VRB02KT 9999 NCD 12/12 Q1015

Closest aviation forecast (TAF) to Ultralight Friuli Airfield

Forecast is more than 6 hours old.

Closest forecast is Bolzano Airport, 90.4 nm (167.4 km) WNW.

2024/05/22 18:13 (retrieved 9 hours ago)

TAF LIPB 222105Z 2218/2318 CNL